createdAt,value
2019-04-16T00:02:37.022Z,96503.00
2019-04-16T00:07:46.022Z,96491.00
2019-04-16T00:13:06.516Z,96514.00
2019-04-16T00:18:08.886Z,96505.00
2019-04-16T00:23:17.612Z,96492.00
2019-04-16T00:28:20.050Z,96480.00
2019-04-16T00:33:22.375Z,96476.00
2019-04-16T00:38:25.654Z,96473.00
2019-04-16T00:43:27.966Z,96478.00
2019-04-16T00:48:30.591Z,96474.00
2019-04-16T00:53:42.310Z,96470.00
2019-04-16T00:58:44.807Z,96467.00
2019-04-16T01:03:47.455Z,96469.00
2019-04-16T01:08:54.806Z,96462.00
2019-04-16T01:13:55.694Z,96459.00
2019-04-16T01:18:58.407Z,96459.00
2019-04-16T01:24:00.694Z,96462.00
2019-04-16T01:29:15.288Z,96454.00
2019-04-16T01:34:40.972Z,96458.00
2019-04-16T01:39:47.431Z,96449.00
2019-04-16T01:44:49.991Z,96451.00
2019-04-16T01:49:52.446Z,96447.00
2019-04-16T01:54:55.680Z,96451.00
2019-04-16T01:59:58.274Z,96440.00
2019-04-16T02:05:00.599Z,96447.00
2019-04-16T02:10:05.976Z,96444.00
2019-04-16T02:15:08.995Z,96443.00
2019-04-16T02:20:11.495Z,96445.00
2019-04-16T02:25:18.990Z,96443.00
2019-04-16T02:30:18.368Z,96451.00
2019-04-16T02:35:20.792Z,96453.00
2019-04-16T02:40:23.136Z,96452.00
2019-04-16T02:45:25.556Z,96453.00
2019-04-16T02:50:42.893Z,96456.00
2019-04-16T02:56:03.524Z,96456.00
2019-04-16T03:01:25.331Z,96458.00
2019-04-16T03:06:31.703Z,96457.00
2019-04-16T03:11:32.014Z,96455.00
2019-04-16T03:16:52.675Z,96466.00
2019-04-16T03:21:55.789Z,96460.00
2019-04-16T03:26:58.849Z,96454.00
2019-04-16T03:32:01.925Z,96454.00
2019-04-16T03:37:04.524Z,96461.00
2019-04-16T03:42:06.933Z,96457.00
2019-04-16T03:47:09.400Z,96458.00
2019-04-16T03:52:12.787Z,96461.00
2019-04-16T03:57:15.268Z,96459.00
2019-04-16T04:02:22.005Z,96456.00
2019-04-16T04:07:22.367Z,96459.00
2019-04-16T04:12:27.714Z,96465.00
2019-04-16T04:17:30.293Z,96467.00
2019-04-16T04:22:33.191Z,96466.00
2019-04-16T04:27:35.615Z,96477.00
2019-04-16T04:32:38.056Z,96479.00
2019-04-16T04:37:40.347Z,96485.00
2019-04-16T04:42:42.893Z,96473.00
2019-04-16T04:47:45.343Z,96479.00
2019-04-16T04:52:47.811Z,96485.00
2019-04-16T04:57:50.254Z,96483.00
2019-04-16T05:02:52.748Z,96483.00
2019-04-16T05:07:59.778Z,96485.00
2019-04-16T05:13:01.067Z,96486.00
2019-04-16T05:18:05.790Z,96495.00
2019-04-16T05:23:08.726Z,96490.00
2019-04-16T05:28:12.102Z,96505.00
2019-04-16T05:33:15.577Z,96504.00
2019-04-16T05:38:20.527Z,96506.00
2019-04-16T05:43:23.009Z,96514.00
2019-04-16T05:48:25.626Z,96507.00
2019-04-16T05:53:28.330Z,96516.00
2019-04-16T05:58:31.565Z,96526.00
2019-04-16T06:03:34.594Z,96524.00
2019-04-16T06:08:40.621Z,96521.00
2019-04-16T06:13:50.600Z,96517.00
2019-04-16T06:19:02.795Z,96512.00
2019-04-16T06:24:17.614Z,96514.00
2019-04-16T06:29:39.690Z,96517.00
2019-04-16T06:35:21.141Z,96528.00
2019-04-16T06:41:03.059Z,96520.00
2019-04-16T06:46:34.223Z,96525.00
2019-04-16T07:03:14.123Z,96517.00
2019-04-16T07:08:49.842Z,96524.00
2019-04-16T07:13:50.594Z,96521.00
2019-04-16T07:18:53.022Z,96525.00
2019-04-16T07:23:58.138Z,96523.00
2019-04-16T07:29:16.167Z,96530.00
2019-04-16T07:34:38.069Z,96520.00
2019-04-16T07:39:59.804Z,96524.00
2019-04-16T07:45:19.799Z,96523.00
2019-04-16T07:50:39.262Z,96527.00
2019-04-16T07:56:01.232Z,96527.00
2019-04-16T08:01:03.890Z,96531.00
2019-04-16T08:06:06.291Z,96529.00
2019-04-16T08:11:08.793Z,96528.00
2019-04-16T08:21:40.646Z,96530.00
2019-04-16T08:26:45.074Z,96533.00
2019-04-16T08:31:48.172Z,96522.00
2019-04-16T08:36:50.931Z,96533.00
2019-04-16T08:41:53.258Z,96531.00
2019-04-16T08:46:58.375Z,96532.00
2019-04-16T08:51:59.815Z,96532.00
2019-04-16T08:57:02.271Z,96539.00
2019-04-16T09:02:28.195Z,96539.00
2019-04-16T09:07:41.550Z,96535.00
2019-04-16T09:12:50.711Z,96527.00
2019-04-16T09:17:51.520Z,96523.00
2019-04-16T09:22:54.665Z,96535.00
2019-04-16T09:28:07.856Z,96532.00
2019-04-16T09:33:37.880Z,96525.00
2019-04-16T09:39:06.927Z,96535.00
2019-04-16T09:44:09.519Z,96537.00
2019-04-16T09:49:11.923Z,96537.00
2019-04-16T09:54:14.338Z,96536.00
2019-04-16T09:59:47.709Z,96523.00
2019-04-16T10:04:51.768Z,96521.00
2019-04-16T10:10:34.370Z,96514.00
2019-04-16T10:15:36.927Z,96509.00
2019-04-16T10:20:40.438Z,96513.00
2019-04-16T10:25:43.187Z,96508.00
2019-04-16T10:31:08.857Z,96505.00
2019-04-16T10:36:13.335Z,96512.00
2019-04-16T10:53:11.507Z,96505.00
2019-04-16T10:58:44.312Z,96501.00
2019-04-16T11:03:57.211Z,96490.00
2019-04-16T11:14:57.707Z,96473.00
2019-04-16T11:49:44.381Z,96466.00
2019-04-16T12:00:50.572Z,96461.00
2019-04-16T12:12:23.456Z,96461.00
2019-04-16T12:17:48.428Z,96464.00
2019-04-16T12:58:25.710Z,96438.00
2019-04-16T13:21:18.328Z,96440.00
2019-04-16T13:26:33.538Z,96433.00
2019-04-16T13:31:45.174Z,96434.00
2019-04-16T13:37:05.793Z,96441.00
2019-04-16T13:42:15.220Z,96438.00
2019-04-16T13:47:17.633Z,96430.00
2019-04-16T13:52:24.951Z,96436.00
2019-04-16T13:58:05.181Z,96433.00
2019-04-16T14:03:13.260Z,96443.00
2019-04-16T14:08:22.219Z,96425.00
2019-04-16T14:13:24.663Z,96438.00
2019-04-16T14:18:29.592Z,96437.00
2019-04-16T14:23:31.548Z,96445.00
2019-04-16T14:28:35.270Z,96437.00
2019-04-16T14:33:58.018Z,96444.00
2019-04-16T14:39:07.806Z,96445.00
2019-04-16T14:44:10.911Z,96446.00
2019-04-16T14:49:15.065Z,96445.00
2019-04-16T14:54:26.747Z,96448.00
2019-04-16T14:59:40.413Z,96453.00
2019-04-16T15:05:02.531Z,96456.00
2019-04-16T15:10:37.703Z,96460.00
2019-04-16T15:15:47.839Z,96459.00
2019-04-16T15:21:12.008Z,96461.00
2019-04-16T15:26:25.647Z,96467.00
2019-04-16T15:31:42.631Z,96465.00
2019-04-16T15:36:55.058Z,96473.00
2019-04-16T15:42:22.074Z,96479.00
2019-04-16T15:47:45.723Z,96485.00
2019-04-16T15:52:55.407Z,96477.00
2019-04-16T15:58:20.730Z,96479.00
2019-04-16T16:03:37.886Z,96492.00
2019-04-16T16:08:55.972Z,96484.00
2019-04-16T16:14:01.135Z,96480.00
2019-04-16T16:19:28.428Z,96489.00
2019-04-16T16:24:36.093Z,96488.00
2019-04-16T16:29:40.052Z,96493.00
2019-04-16T16:34:42.977Z,96491.00
2019-04-16T16:39:45.730Z,96495.00
2019-04-16T16:44:48.178Z,96498.00
2019-04-16T16:49:50.613Z,96500.00
2019-04-16T16:54:54.759Z,96507.00
2019-04-16T17:00:11.585Z,96507.00
2019-04-16T17:05:18.861Z,96512.00
2019-04-16T17:10:22.339Z,96516.00
2019-04-16T17:15:25.991Z,96516.00
2019-04-16T17:20:28.420Z,96506.00
2019-04-16T17:25:36.688Z,96510.00
2019-04-16T17:30:35.179Z,96515.00
2019-04-16T17:35:38.700Z,96514.00
2019-04-16T17:40:47.152Z,96521.00
2019-04-16T17:46:01.149Z,96516.00
2019-04-16T17:51:23.876Z,96519.00
2019-04-16T17:56:44.601Z,96533.00
2019-04-16T18:02:12.479Z,96529.00
2019-04-16T18:07:40.513Z,96537.00
2019-04-16T18:12:56.440Z,96538.00
2019-04-16T18:18:18.937Z,96547.00
2019-04-16T18:23:30.227Z,96559.00
2019-04-16T18:28:42.135Z,96554.00
2019-04-16T18:39:57.228Z,96570.00
2019-04-16T18:45:21.524Z,96564.00
2019-04-16T18:50:28.462Z,96567.00
2019-04-16T18:55:30.998Z,96576.00
2019-04-16T19:00:43.792Z,96586.00
2019-04-16T19:05:47.343Z,96582.00
2019-04-16T19:10:51.379Z,96604.00
2019-04-16T19:15:54.235Z,96604.00
2019-04-16T19:20:57.787Z,96611.00
2019-04-16T19:26:00.302Z,96620.00
2019-04-16T19:31:02.847Z,96628.00
2019-04-16T19:36:05.403Z,96631.00
2019-04-16T19:41:08.407Z,96638.00
2019-04-16T19:46:15.271Z,96639.00
2019-04-16T19:51:19.310Z,96633.00
2019-04-16T19:56:19.738Z,96645.00
2019-04-16T20:01:22.114Z,96653.00
2019-04-16T20:06:26.347Z,96656.00
2019-04-16T20:11:32.617Z,96662.00
2019-04-16T20:16:35.012Z,96665.00
2019-04-16T20:21:38.703Z,96662.00
2019-04-16T20:26:41.340Z,96666.00
2019-04-16T20:31:43.827Z,96669.00
2019-04-16T20:36:46.215Z,96675.00
2019-04-16T20:41:52.744Z,96664.00
2019-04-16T20:46:53.785Z,96668.00
2019-04-16T20:52:00.208Z,96674.00
2019-04-16T20:57:00.860Z,96679.00
2019-04-16T21:02:03.339Z,96670.00
2019-04-16T21:07:05.659Z,96676.00
2019-04-16T21:12:12.601Z,96676.00
2019-04-16T21:17:12.630Z,96674.00
2019-04-16T21:22:16.846Z,96686.00
2019-04-16T21:27:21.132Z,96684.00
2019-04-16T21:32:42.015Z,96693.00
2019-04-16T21:37:54.158Z,96689.00
2019-04-16T21:42:57.075Z,96688.00
2019-04-16T21:47:59.799Z,96690.00
2019-04-16T21:53:02.127Z,96705.00
2019-04-16T21:58:04.586Z,96701.00
2019-04-16T22:03:09.858Z,96707.00
2019-04-16T22:08:12.458Z,96707.00
2019-04-16T22:13:19.104Z,96711.00
2019-04-16T22:18:19.422Z,96709.00
2019-04-16T22:23:21.766Z,96715.00
2019-04-16T22:28:24.239Z,96713.00
2019-04-16T22:33:26.678Z,96720.00
2019-04-16T22:38:30.802Z,96711.00
2019-04-16T22:44:06.365Z,96709.00
2019-04-16T22:49:10.199Z,96718.00
2019-04-16T22:54:12.501Z,96720.00
2019-04-16T22:59:14.939Z,96727.00
2019-04-16T23:04:17.226Z,96732.00
2019-04-16T23:09:20.908Z,96733.00
2019-04-16T23:14:23.287Z,96732.00
2019-04-16T23:19:25.650Z,96733.00
2019-04-16T23:24:28.111Z,96744.00
2019-04-16T23:29:30.459Z,96742.00
2019-04-16T23:34:34.902Z,96748.00
2019-04-16T23:39:37.641Z,96751.00
2019-04-16T23:45:00.381Z,96753.00
2019-04-16T23:50:24.452Z,96749.00
2019-04-16T23:55:50.021Z,96743.00
